Time;durP1;ratioP1;P1;durP2;ratioP2;P2;SDS_P1;SDS_P2;PMS_P1;PMS_P2;Temp;Humidity;BMP_temperature;BMP_pressure;BME280_temperature;BME280_humidity;BME280_pressure;Samples;Min_cycle;Max_cycle;Signal;HPM_P1;HPM_P2
2022/01/29 00:00:03;;;;;;;;;;;;;;;2.77;100.00;100576.75;5034539;28;19920;-64
2022/01/29 00:02:29;;;;;;;;;;;;;;;3.02;100.00;100588.75;5032805;28;20272;-64
2022/01/29 00:04:54;;;;;;;;;;;;;;;2.43;100.00;100590.50;5034173;28;19924;-64
2022/01/29 00:07:19;;;;;;;;;;;;;;;2.41;100.00;100579.59;5034350;28;19913;-63
2022/01/29 00:09:47;;;;;;;;;;;;;;;2.49;100.00;100583.06;5034688;28;19913;-63
2022/01/29 00:12:12;;;;;;;;;;;;;;;2.63;100.00;100579.03;5034545;28;19923;-64
2022/01/29 00:14:37;;;;;;;;;;;;;;;2.75;100.00;100585.06;5034230;28;20079;-64
2022/01/29 00:17:03;;;;;;;;;;;;;;;2.44;100.00;100581.28;5034234;28;19913;-63
2022/01/29 00:19:28;;;;;;;;;;;;;;;2.06;100.00;100587.41;5033769;28;20405;-64
2022/01/29 00:21:53;;;;;;;;;;;;;;;2.05;100.00;100578.19;5034563;28;19971;-63
2022/01/29 00:24:19;;;;;;;;;;;;;;;2.07;100.00;100579.91;5034035;28;19913;-64
2022/01/29 00:26:44;;;;;;;;;;;;;;;2.05;100.00;100583.19;5033949;28;19971;-64
2022/01/29 00:29:17;;;;;;;;;;;;;;;2.18;100.00;100588.41;5033977;28;20364;-64
2022/01/29 00:31:43;;;;;;;;;;;;;;;1.69;100.00;100596.81;5032382;28;19913;-64
2022/01/29 00:34:08;;;;;;;;;;;;;;;1.75;100.00;100599.41;5032259;28;20375;-64
2022/01/29 00:36:33;;;;;;;;;;;;;;;1.67;100.00;100603.44;5032568;28;19913;-64
2022/01/29 00:38:58;;;;;;;;;;;;;;;2.14;100.00;100595.91;5034098;28;19915;-63
2022/01/29 00:41:24;;;;;;;;;;;;;;;1.76;100.00;100602.78;5033559;28;19966;-64
2022/01/29 00:43:49;;;;;;;;;;;;;;;1.60;100.00;100611.69;5034204;28;19923;-63
2022/01/29 00:46:14;;;;;;;;;;;;;;;1.94;100.00;100607.25;5033948;28;19909;-64
2022/01/29 00:48:39;;;;;;;;;;;;;;;2.23;100.00;100613.56;5033510;28;19921;-64
2022/01/29 00:51:05;;;;;;;;;;;;;;;1.78;100.00;100616.19;5033661;28;19917;-63
2022/01/29 00:53:30;;;;;;;;;;;;;;;1.62;100.00;100614.22;5033556;28;19913;-64
2022/01/29 00:55:55;;;;;;;;;;;;;;;1.82;100.00;100607.91;5032148;28;19917;-63
2022/01/29 00:58:21;;;;;;;;;;;;;;;1.10;100.00;100611.53;5033474;28;19924;-63
2022/01/29 01:03:21;;;;;;;;;;;;;;;1.00;100.00;100597.97;3595905;26;9999928;-70
2022/01/29 01:05:46;;;;;;;;;;;;;;;1.04;100.00;100604.75;5013824;28;20067;-69
2022/01/29 01:08:12;;;;;;;;;;;;;;;1.06;100.00;100605.63;5014055;28;19913;-69
2022/01/29 01:10:37;;;;;;;;;;;;;;;0.97;100.00;100607.91;5012762;28;20349;-70
2022/01/29 01:13:02;;;;;;;;;;;;;;;0.60;100.00;100602.94;5013709;28;20043;-70
2022/01/29 01:15:28;;;;;;;;;;;;;;;1.18;100.00;100600.00;5012748;28;19921;-70
2022/01/29 01:17:53;;;;;;;;;;;;;;;1.12;100.00;100613.25;5013925;28;19949;-70
2022/01/29 01:20:18;;;;;;;;;;;;;;;0.70;100.00;100608.19;5013964;28;20350;-70
2022/01/29 01:22:44;;;;;;;;;;;;;;;1.12;100.00;100600.72;5012619;28;19953;-70
2022/01/29 01:25:09;;;;;;;;;;;;;;;1.06;100.00;100602.25;5012598;28;20456;-70
2022/01/29 01:27:35;;;;;;;;;;;;;;;0.98;100.00;100611.28;5013540;28;20371;-69
2022/01/29 01:30:00;;;;;;;;;;;;;;;1.19;100.00;100610.03;5013740;28;19913;-70
2022/01/29 01:32:25;;;;;;;;;;;;;;;0.96;100.00;100610.41;5013838;28;19967;-70
2022/01/29 01:34:54;;;;;;;;;;;;;;;0.77;100.00;100609.19;5013836;28;20303;-70
2022/01/29 01:37:37;;;;;;;;;;;;;;;0.85;100.00;100615.19;5013976;28;19914;-70
2022/01/29 01:40:03;;;;;;;;;;;;;;;0.88;100.00;100623.59;5013237;28;19917;-70
2022/01/29 01:42:28;;;;;;;;;;;;;;;1.24;100.00;100621.00;5012111;28;19917;-69
2022/01/29 01:44:55;;;;;;;;;;;;;;;1.40;100.00;100623.00;5013533;28;20064;-68
2022/01/29 01:47:21;;;;;;;;;;;;;;;1.31;100.00;100616.94;5013347;28;19913;-70
2022/01/29 01:49:46;;;;;;;;;;;;;;;1.01;100.00;100614.66;5011812;28;19913;-69
2022/01/29 01:52:12;;;;;;;;;;;;;;;0.91;100.00;100609.47;5012706;28;19913;-68
2022/01/29 01:54:38;;;;;;;;;;;;;;;0.81;100.00;100613.44;5012919;28;19917;-69
2022/01/29 01:57:04;;;;;;;;;;;;;;;0.83;100.00;100625.16;5013136;28;19972;-69
2022/01/29 01:59:29;;;;;;;;;;;;;;;0.84;100.00;100628.50;5013038;28;19956;-69
2022/01/29 02:01:55;;;;;;;;;;;;;;;1.00;100.00;100634.66;5011560;28;20689;-65
2022/01/29 02:04:20;;;;;;;;;;;;;;;0.70;100.00;100632.38;5012461;28;19992;-69
2022/01/29 02:06:50;;;;;;;;;;;;;;;0.76;100.00;100635.00;5012783;28;19917;-70
2022/01/29 02:09:17;;;;;;;;;;;;;;;0.81;100.00;100629.28;5012481;28;19918;-69
2022/01/29 02:11:50;;;;;;;;;;;;;;;0.75;100.00;100634.16;5011661;28;19924;-70
2022/01/29 02:14:16;;;;;;;;;;;;;;;0.85;100.00;100648.53;5012759;28;19925;-70
2022/01/29 02:16:41;;;;;;;;;;;;;;;0.76;100.00;100650.00;5012736;28;19914;-70
2022/01/29 02:19:06;;;;;;;;;;;;;;;0.89;100.00;100649.47;5012710;28;20012;-70
2022/01/29 02:21:35;;;;;;;;;;;;;;;0.98;100.00;100654.66;5012762;28;20004;-70
2022/01/29 02:24:01;;;;;;;;;;;;;;;0.79;100.00;100650.91;5012442;28;19914;-70
2022/01/29 02:26:26;;;;;;;;;;;;;;;0.76;100.00;100645.00;5011567;28;20372;-70
2022/01/29 02:28:52;;;;;;;;;;;;;;;0.73;100.00;100642.44;5012217;28;19948;-70
2022/01/29 02:31:18;;;;;;;;;;;;;;;0.65;100.00;100644.75;5012502;28;19914;-70
2022/01/29 02:33:44;;;;;;;;;;;;;;;0.60;100.00;100658.81;5012433;28;19920;-69
2022/01/29 02:36:09;;;;;;;;;;;;;;;0.49;100.00;100649.41;5012095;28;19988;-69
2022/01/29 02:38:35;;;;;;;;;;;;;;;0.53;100.00;100651.16;5010649;28;20007;-69
2022/01/29 02:41:03;;;;;;;;;;;;;;;0.79;100.00;100642.59;5012372;28;20367;-69
2022/01/29 02:43:33;;;;;;;;;;;;;;;0.99;100.00;100645.50;5011669;28;19924;-68
2022/01/29 02:46:05;;;;;;;;;;;;;;;0.69;100.00;100653.19;5010834;28;19913;-66
2022/01/29 02:48:31;;;;;;;;;;;;;;;0.41;100.00;100663.38;5011853;28;19952;-69
2022/01/29 02:50:56;;;;;;;;;;;;;;;0.78;100.00;100653.38;5011809;28;19971;-69
2022/01/29 02:53:21;;;;;;;;;;;;;;;0.55;100.00;100657.88;5011892;28;20375;-69
2022/01/29 02:55:47;;;;;;;;;;;;;;;0.65;100.00;100652.25;5010697;28;20013;-69
2022/01/29 02:58:12;;;;;;;;;;;;;;;0.54;100.00;100660.34;5011777;28;19913;-70
2022/01/29 03:00:37;;;;;;;;;;;;;;;0.67;100.00;100660.63;5011885;28;19913;-69
2022/01/29 03:03:03;;;;;;;;;;;;;;;0.49;100.00;100661.91;5011700;28;19921;-69
2022/01/29 03:05:28;;;;;;;;;;;;;;;0.34;100.00;100662.38;5011607;28;20422;-68
2022/01/29 03:07:53;;;;;;;;;;;;;;;0.20;100.00;100670.38;5011777;28;19921;-69
2022/01/29 03:10:21;;;;;;;;;;;;;;;0.31;100.00;100664.81;5011595;28;19963;-69
2022/01/29 03:12:47;;;;;;;;;;;;;;;0.25;100.00;100678.81;5011724;28;19920;-69
2022/01/29 03:15:13;;;;;;;;;;;;;;;0.13;100.00;100673.50;5011635;28;19917;-69
2022/01/29 03:17:38;;;;;;;;;;;;;;;-0.02;100.00;100673.97;5011791;28;19913;-68
2022/01/29 03:20:04;;;;;;;;;;;;;;;0.20;100.00;100675.38;5011293;28;20371;-68
2022/01/29 03:22:29;;;;;;;;;;;;;;;0.27;100.00;100677.19;5011610;28;20312;-68
2022/01/29 03:24:55;;;;;;;;;;;;;;;-0.05;100.00;100674.75;5011294;28;19914;-69
2022/01/29 03:27:21;;;;;;;;;;;;;;;-0.12;100.00;100672.88;5009835;28;19913;-68
2022/01/29 03:29:46;;;;;;;;;;;;;;;-0.24;100.00;100677.56;5010047;28;19921;-68
2022/01/29 03:32:11;;;;;;;;;;;;;;;-0.17;100.00;100678.56;5011223;28;19920;-68
2022/01/29 03:34:37;;;;;;;;;;;;;;;0.03;100.00;100686.56;5011002;28;20354;-69
2022/01/29 03:37:03;;;;;;;;;;;;;;;0.15;100.00;100697.72;5011096;28;19918;-69
2022/01/29 03:39:29;;;;;;;;;;;;;;;-0.02;100.00;100697.28;5011478;28;20355;-69
2022/01/29 03:42:00;;;;;;;;;;;;;;;-0.16;100.00;100700.25;5010888;28;19928;-69
2022/01/29 03:44:25;;;;;;;;;;;;;;;0.05;100.00;100695.81;5011235;28;20395;-69
2022/01/29 03:46:51;;;;;;;;;;;;;;;0.27;100.00;100692.19;5011375;28;19993;-69
2022/01/29 03:49:16;;;;;;;;;;;;;;;0.33;100.00;100688.19;5011281;28;19917;-68
2022/01/29 03:51:41;;;;;;;;;;;;;;;0.05;100.00;100695.81;5010862;28;20363;-69
2022/01/29 03:54:07;;;;;;;;;;;;;;;0.10;100.00;100699.25;5011318;28;19917;-69
2022/01/29 03:56:32;;;;;;;;;;;;;;;0.22;100.00;100696.25;5011006;28;19918;-69
2022/01/29 03:58:57;;;;;;;;;;;;;;;0.21;100.00;100702.03;5011022;28;20008;-69
2022/01/29 04:01:22;;;;;;;;;;;;;;;-0.10;100.00;100700.44;5010907;28;19918;-68
2022/01/29 04:03:48;;;;;;;;;;;;;;;-0.27;100.00;100704.97;5011035;28;19956;-69
2022/01/29 04:06:13;;;;;;;;;;;;;;;0.15;100.00;100699.38;5010873;28;19925;-70
2022/01/29 04:08:43;;;;;;;;;;;;;;;-0.11;100.00;100691.22;5010885;28;19976;-70
2022/01/29 04:11:10;;;;;;;;;;;;;;;-0.49;100.00;100690.19;5010782;28;20008;-69
2022/01/29 04:13:37;;;;;;;;;;;;;;;-0.25;100.00;100700.84;5011024;28;20367;-68
2022/01/29 04:16:03;;;;;;;;;;;;;;;0.21;100.00;100697.03;5010831;28;19919;-69
2022/01/29 04:18:28;;;;;;;;;;;;;;;-0.34;100.00;100700.63;5010516;28;19913;-69
2022/01/29 04:20:53;;;;;;;;;;;;;;;-0.33;100.00;100703.94;5009510;28;19917;-69
2022/01/29 04:23:18;;;;;;;;;;;;;;;-0.36;100.00;100706.38;5010957;28;19923;-69
2022/01/29 04:25:44;;;;;;;;;;;;;;;-0.20;100.00;100689.31;5010747;28;19972;-68
2022/01/29 04:28:11;;;;;;;;;;;;;;;-0.15;100.00;100701.94;5012186;28;20398;-69
2022/01/29 04:30:45;;;;;;;;;;;;;;;-0.34;100.00;100703.13;5014580;28;19913;-66
2022/01/29 04:35:48;;;;;;;;;;;;;;;0.12;100.00;100709.31;5014569;28;19914;-69
2022/01/29 04:38:13;;;;;;;;;;;;;;;0.05;100.00;100719.94;5014304;28;19964;-68
2022/01/29 04:40:39;;;;;;;;;;;;;;;-0.17;100.00;100721.88;5013986;28;19976;-68
2022/01/29 04:43:05;;;;;;;;;;;;;;;-0.18;100.00;100716.84;5014263;28;19914;-68
2022/01/29 04:45:30;;;;;;;;;;;;;;;-0.28;100.00;100725.72;5014485;28;19917;-68
2022/01/29 04:47:56;;;;;;;;;;;;;;;-0.22;100.00;100735.88;5013978;28;20310;-69
2022/01/29 04:50:21;;;;;;;;;;;;;;;-0.66;100.00;100733.81;5014036;28;19968;-67
2022/01/29 04:52:46;;;;;;;;;;;;;;;-0.36;100.00;100739.69;5013981;28;20299;-68
2022/01/29 04:55:11;;;;;;;;;;;;;;;-0.58;100.00;100746.50;5012376;28;19914;-69
2022/01/29 04:57:39;;;;;;;;;;;;;;;-0.71;100.00;100751.97;5014312;28;20334;-69
2022/01/29 05:00:07;;;;;;;;;;;;;;;-0.64;100.00;100746.31;5013700;28;19914;-68
2022/01/29 05:02:33;;;;;;;;;;;;;;;-0.70;100.00;100747.00;5013614;28;20494;-68
2022/01/29 05:04:58;;;;;;;;;;;;;;;-0.45;100.00;100751.03;5013861;28;20011;-68
2022/01/29 05:07:23;;;;;;;;;;;;;;;-0.61;100.00;100753.91;5013870;28;19968;-68
2022/01/29 05:09:49;;;;;;;;;;;;;;;-0.61;100.00;100756.38;5013560;28;19913;-69
2022/01/29 05:12:20;;;;;;;;;;;;;;;-0.68;100.00;100764.50;5004581;28;19914;-69
2022/01/29 05:15:08;;;;;;;;;;;;;;;-0.55;100.00;100764.06;4992578;28;20356;-69
2022/01/29 05:28:28;;;;;;;;;;;;;;;-0.95;100.00;100767.88;4993618;28;19976;-69
2022/01/29 05:30:54;;;;;;;;;;;;;;;-1.25;100.00;100774.38;4993538;28;19917;-70
2022/01/29 05:33:19;;;;;;;;;;;;;;;-1.02;100.00;100780.09;4993659;28;19920;-69
2022/01/29 05:35:44;;;;;;;;;;;;;;;-1.17;100.00;100777.16;4993254;28;19949;-69
2022/01/29 05:38:09;;;;;;;;;;;;;;;-1.14;100.00;100777.22;4993824;28;19918;-70
2022/01/29 05:40:35;;;;;;;;;;;;;;;-1.14;100.00;100784.72;4993075;28;20364;-72
2022/01/29 05:43:00;;;;;;;;;;;;;;;-1.21;100.00;100788.66;4993906;28;20378;-71
2022/01/29 05:45:25;;;;;;;;;;;;;;;-1.06;100.00;100785.81;4992424;28;20335;-72
2022/01/29 05:47:51;;;;;;;;;;;;;;;-1.01;100.00;100791.81;4993564;28;19914;-69
2022/01/29 05:50:16;;;;;;;;;;;;;;;-1.43;100.00;100792.91;4993934;28;19916;-71
2022/01/29 05:52:41;;;;;;;;;;;;;;;-0.96;100.00;100791.13;4993705;28;20629;-72
2022/01/29 05:55:07;;;;;;;;;;;;;;;-0.78;100.00;100785.84;4993913;28;20016;-71
2022/01/29 05:57:32;;;;;;;;;;;;;;;-0.90;100.00;100797.97;4993716;28;20241;-72
2022/01/29 05:59:57;;;;;;;;;;;;;;;-0.85;100.00;100798.94;4994134;28;20387;-71
2022/01/29 06:02:23;;;;;;;;;;;;;;;-0.86;100.00;100807.22;4992274;28;19918;-70
2022/01/29 06:04:49;;;;;;;;;;;;;;;-0.90;100.00;100797.97;4993234;28;19925;-70
2022/01/29 06:07:14;;;;;;;;;;;;;;;0.60;100.00;100813.91;4993178;28;19924;-70
2022/01/29 06:09:40;;;;;;;;;;;;;;;2.44;100.00;100807.91;4993219;28;20365;-70
2022/01/29 06:12:05;;;;;;;;;;;;;;;4.78;100.00;100806.03;5008946;28;19913;-65
2022/01/29 06:14:31;;;;;;;;;;;;;;;0.73;100.00;100833.41;4997027;28;20379;-70
2022/01/29 06:16:56;;;;;;;;;;;;;;;4.16;100.00;100828.06;5010805;28;19914;-70
2022/01/29 06:19:21;;;;;;;;;;;;;;;4.13;94.90;100834.72;5012528;28;19917;-69
2022/01/29 06:21:47;;;;;;;;;;;;;;;4.67;89.58;100827.78;5012050;28;19913;-68
2022/01/29 06:24:12;;;;;;;;;;;;;;;5.85;83.65;100833.69;5012249;28;19918;-69
2022/01/29 06:26:37;;;;;;;;;;;;;;;2.77;100.00;100832.75;5012108;28;20354;-70
2022/01/29 06:29:04;;;;;;;;;;;;;;;3.10;100.00;100834.97;5010795;28;19928;-70
2022/01/29 06:31:29;;;;;;;;;;;;;;;3.78;99.82;100856.09;5012616;28;20561;-70
2022/01/29 06:33:55;;;;;;;;;;;;;;;2.34;100.00;100860.38;5012154;28;19917;-68
2022/01/29 06:36:20;;;;;;;;;;;;;;;1.97;100.00;100853.81;5011662;28;19909;-69
2022/01/29 06:38:45;;;;;;;;;;;;;;;1.29;100.00;100852.28;5010018;28;20340;-69
2022/01/29 06:41:10;;;;;;;;;;;;;;;1.53;100.00;100847.84;5026943;28;19913;-70
2022/01/29 06:43:36;;;;;;;;;;;;;;;1.06;100.00;100850.91;5011948;28;19916;-71
2022/01/29 06:46:01;;;;;;;;;;;;;;;1.29;100.00;100854.78;5026009;28;20080;-70
2022/01/29 06:48:27;;;;;;;;;;;;;;;4.39;100.00;100848.47;5011112;28;20386;-69
2022/01/29 06:50:52;;;;;;;;;;;;;;;2.49;100.00;100845.63;5010444;28;20291;-70
2022/01/29 06:53:17;;;;;;;;;;;;;;;1.54;100.00;100854.56;5010776;28;19936;-69
2022/01/29 06:55:42;;;;;;;;;;;;;;;1.58;100.00;100857.97;5025814;28;19913;-69
2022/01/29 06:58:08;;;;;;;;;;;;;;;1.80;100.00;100849.25;5010759;28;19917;-70
2022/01/29 07:00:33;;;;;;;;;;;;;;;6.20;100.00;100838.88;5011644;28;19917;-68
2022/01/29 07:02:58;;;;;;;;;;;;;;;8.23;70.76;100825.25;5026842;28;20311;-69
2022/01/29 07:05:24;;;;;;;;;;;;;;;8.53;64.62;100828.50;5011641;28;20375;-70
2022/01/29 07:07:49;;;;;;;;;;;;;;;7.75;64.22;100834.72;5026839;28;19909;-70
2022/01/29 07:10:14;;;;;;;;;;;;;;;8.05;64.96;100832.94;5011824;28;19919;-69
2022/01/29 07:12:40;;;;;;;;;;;;;;;8.65;65.32;100828.44;5012010;28;20375;-70
2022/01/29 07:15:09;;;;;;;;;;;;;;;9.76;61.79;100809.69;5011778;28;20040;-69
2022/01/29 07:17:35;;;;;;;;;;;;;;;9.48;58.95;100809.13;5011557;28;19914;-70
2022/01/29 07:20:00;;;;;;;;;;;;;;;8.57;62.40;100822.56;5011386;28;20387;-69
2022/01/29 07:22:26;;;;;;;;;;;;;;;8.13;64.01;100818.53;5026529;28;20350;-69
2022/01/29 07:24:51;;;;;;;;;;;;;;;9.66;60.11;100819.09;5011802;28;19971;-69
2022/01/29 07:27:16;;;;;;;;;;;;;;;9.02;61.57;100830.69;5011585;28;20436;-70
2022/01/29 07:29:42;;;;;;;;;;;;;;;8.92;61.35;100839.22;5011106;28;20514;-68
2022/01/29 07:32:07;;;;;;;;;;;;;;;6.07;75.83;100848.09;5011208;28;19920;-70
2022/01/29 07:34:33;;;;;;;;;;;;;;;6.00;86.69;100849.72;5011083;28;20410;-69
2022/01/29 07:36:59;;;;;;;;;;;;;;;5.24;89.83;100870.25;5026595;28;19910;-69
2022/01/29 07:39:25;;;;;;;;;;;;;;;3.61;100.00;100870.94;5011511;28;19914;-69
2022/01/29 07:41:50;;;;;;;;;;;;;;;4.49;100.00;100870.38;5011319;28;20306;-69
2022/01/29 07:44:16;;;;;;;;;;;;;;;4.58;100.00;100874.66;5011360;28;20003;-69
2022/01/29 07:46:41;;;;;;;;;;;;;;;4.17;100.00;100876.72;5009935;28;20359;-70
2022/01/29 07:49:07;;;;;;;;;;;;;;;4.34;100.00;100875.22;5026068;28;20280;-69
2022/01/29 07:51:32;;;;;;;;;;;;;;;4.68;100.00;100877.28;5011448;28;19948;-67
2022/01/29 07:53:58;;;;;;;;;;;;;;;4.91;100.00;100885.91;5011469;28;19913;-70
2022/01/29 07:56:23;;;;;;;;;;;;;;;3.19;100.00;100888.69;5011323;28;19917;-69
2022/01/29 07:58:49;;;;;;;;;;;;;;;3.74;100.00;100880.34;5011140;28;19917;-70
2022/01/29 08:01:14;;;;;;;;;;;;;;;4.11;100.00;100879.16;5010776;28;19913;-69
2022/01/29 08:03:40;;;;;;;;;;;;;;;4.21;100.00;100886.84;5028293;28;20406;-69
2022/01/29 08:06:05;;;;;;;;;;;;;;;4.38;100.00;100892.91;5014890;28;19913;-69
2022/01/29 08:08:30;;;;;;;;;;;;;;;4.81;100.00;100879.13;5014817;28;19921;-70
2022/01/29 08:10:56;;;;;;;;;;;;;;;5.41;100.00;100878.78;5014831;28;19914;-69
2022/01/29 08:13:21;;;;;;;;;;;;;;;5.54;100.00;100879.72;5014978;28;20284;-69
2022/01/29 08:15:46;;;;;;;;;;;;;;;5.69;100.00;100879.81;5014514;28;20015;-69
2022/01/29 08:18:12;;;;;;;;;;;;;;;6.37;100.00;100867.56;5014925;28;19918;-68
2022/01/29 08:20:37;;;;;;;;;;;;;;;6.55;98.77;100868.47;5014263;28;19956;-69
2022/01/29 08:23:07;;;;;;;;;;;;;;;6.31;96.51;100873.44;5029456;28;20447;-69
2022/01/29 08:25:32;;;;;;;;;;;;;;;6.36;100.00;100870.94;5014625;28;20451;-68
2022/01/29 08:27:57;;;;;;;;;;;;;;;6.18;99.49;100876.72;5014719;28;19956;-68
2022/01/29 08:30:23;;;;;;;;;;;;;;;6.35;99.34;100874.28;5014698;28;20378;-69
2022/01/29 08:32:48;;;;;;;;;;;;;;;5.72;100.00;100882.34;5014710;28;19913;-69
2022/01/29 08:35:15;;;;;;;;;;;;;;;5.96;100.00;100875.78;5014633;28;19940;-69
2022/01/29 08:37:40;;;;;;;;;;;;;;;6.27;100.00;100886.88;5014382;28;20405;-69
2022/01/29 08:40:07;;;;;;;;;;;;;;;6.23;100.00;100880.13;5014332;28;20008;-68
2022/01/29 08:42:32;;;;;;;;;;;;;;;6.21;100.00;100886.84;5014182;28;19913;-69
2022/01/29 08:44:57;;;;;;;;;;;;;;;6.18;100.00;100891.88;5014285;28;19920;-68
2022/01/29 08:47:23;;;;;;;;;;;;;;;6.28;100.00;100893.59;5029325;28;19917;-69
2022/01/29 08:49:48;;;;;;;;;;;;;;;6.60;97.25;100897.09;5014038;28;19917;-69
2022/01/29 08:52:14;;;;;;;;;;;;;;;6.46;94.13;100898.72;5013919;28;19917;-69
2022/01/29 08:54:39;;;;;;;;;;;;;;;6.70;93.97;100906.38;5014268;28;20358;-69
2022/01/29 08:57:05;;;;;;;;;;;;;;;6.89;91.11;100903.03;5014034;28;19932;-69
2022/01/29 08:59:30;;;;;;;;;;;;;;;6.80;90.69;100895.47;5013938;28;19917;-68
2022/01/29 09:01:55;;;;;;;;;;;;;;;6.62;92.11;100895.41;5014056;28;20055;-69
2022/01/29 09:04:20;;;;;;;;;;;;;;;6.71;90.94;100900.50;5013920;28;19967;-69
2022/01/29 09:06:46;;;;;;;;;;;;;;;6.97;89.54;100898.84;5028989;28;20286;-69
2022/01/29 09:09:11;;;;;;;;;;;;;;;6.85;86.70;100903.88;5013867;28;19913;-69
2022/01/29 09:11:36;;;;;;;;;;;;;;;6.97;84.98;100903.09;5013612;28;19913;-69
2022/01/29 09:14:02;;;;;;;;;;;;;;;6.97;86.69;100890.44;5013721;28;19924;-69
2022/01/29 09:16:27;;;;;;;;;;;;;;;7.14;83.68;100895.50;5013561;28;20021;-67
2022/01/29 09:18:52;;;;;;;;;;;;;;;7.02;84.78;100901.38;5013504;28;20306;-69
2022/01/29 09:21:18;;;;;;;;;;;;;;;7.46;83.45;100891.28;5013431;28;19917;-69
2022/01/29 09:23:44;;;;;;;;;;;;;;;7.73;79.00;100893.78;5013881;28;19913;-69
2022/01/29 09:26:09;;;;;;;;;;;;;;;7.26;79.04;100891.31;5013838;28;20425;-69
2022/01/29 09:28:34;;;;;;;;;;;;;;;7.21;80.74;100897.19;5013201;28;19999;-69
2022/01/29 09:31:00;;;;;;;;;;;;;;;7.09;82.65;100905.59;5013777;28;19913;-69
2022/01/29 09:33:25;;;;;;;;;;;;;;;6.76;85.46;100916.50;5013215;28;19913;-68
2022/01/29 09:35:50;;;;;;;;;;;;;;;6.89;85.51;100910.63;5013314;28;20016;-69
2022/01/29 09:38:15;;;;;;;;;;;;;;;6.79;86.73;100900.50;5013392;28;19914;-69
2022/01/29 09:40:42;;;;;;;;;;;;;;;6.68;87.32;100902.16;5013104;28;19913;-69
2022/01/29 09:43:09;;;;;;;;;;;;;;;6.77;88.56;100904.72;5012946;28;19921;-69
2022/01/29 09:45:34;;;;;;;;;;;;;;;6.73;88.98;100895.44;5013104;28;19914;-68
2022/01/29 09:48:03;;;;;;;;;;;;;;;6.70;89.21;100888.69;5012921;28;19920;-67
2022/01/29 09:50:30;;;;;;;;;;;;;;;6.69;89.21;100887.03;5012833;28;19920;-68
2022/01/29 09:52:55;;;;;;;;;;;;;;;6.80;89.96;100887.03;5013161;28;19920;-68
2022/01/29 09:55:21;;;;;;;;;;;;;;;7.14;87.37;100885.38;5012929;28;19909;-69
2022/01/29 09:57:46;;;;;;;;;;;;;;;7.51;84.11;100880.31;5012669;28;20235;-69
2022/01/29 10:00:11;;;;;;;;;;;;;;;7.75;82.81;100874.38;5012795;28;20380;-69
2022/01/29 10:02:37;;;;;;;;;;;;;;;7.84;79.12;100870.13;5012251;28;19917;-69
2022/01/29 10:05:04;;;;;;;;;;;;;;;7.45;80.69;100871.88;5012745;28;19914;-68
2022/01/29 10:07:31;;;;;;;;;;;;;;;7.78;79.32;100875.19;5012949;28;19913;-69
2022/01/29 10:09:58;;;;;;;;;;;;;;;7.31;79.35;100868.53;5012792;28;19924;-69
2022/01/29 10:12:26;;;;;;;;;;;;;;;7.28;79.54;100866.84;5012366;28;19976;-69
2022/01/29 10:14:57;;;;;;;;;;;;;;;7.34;79.94;100866.84;5012576;28;19923;-69
2022/01/29 10:17:41;;;;;;;;;;;;;;;7.67;78.78;100863.41;5012242;28;19921;-69
2022/01/29 10:20:07;;;;;;;;;;;;;;;7.62;76.66;100860.91;5012371;28;20374;-70
2022/01/29 10:22:35;;;;;;;;;;;;;;;8.08;75.27;100861.59;5012415;28;19949;-67
2022/01/29 10:25:04;;;;;;;;;;;;;;;8.40;74.72;100853.91;5027361;28;20313;-70
2022/01/29 10:27:29;;;;;;;;;;;;;;;8.34;72.31;100839.59;5012246;28;20007;-69
2022/01/29 10:30:01;;;;;;;;;;;;;;;8.16;72.36;100841.34;5012274;28;19944;-69
2022/01/29 10:32:26;;;;;;;;;;;;;;;8.62;69.40;100837.72;5012376;28;19913;-70
2022/01/29 10:34:56;;;;;;;;;;;;;;;8.93;68.31;100851.06;5012541;28;20001;-70
2022/01/29 10:37:23;;;;;;;;;;;;;;;8.79;68.13;100841.03;5012014;28;20453;-70
2022/01/29 10:39:56;;;;;;;;;;;;;;;8.69;68.94;100839.41;5010740;28;19919;-70
2022/01/29 10:42:25;;;;;;;;;;;;;;;8.63;69.10;100845.34;5011812;28;19983;-70
2022/01/29 10:44:52;;;;;;;;;;;;;;;8.96;66.90;100841.72;5010698;28;19935;-70
2022/01/29 10:47:18;;;;;;;;;;;;;;;9.75;66.83;100839.28;5012514;28;19919;-70
2022/01/29 10:49:54;;;;;;;;;;;;;;;9.15;65.13;100844.97;5011985;28;20024;-70
2022/01/29 10:52:30;;;;;;;;;;;;;;;8.46;68.66;100841.19;5011991;28;19917;-70
2022/01/29 10:54:59;;;;;;;;;;;;;;;8.92;68.02;100842.59;5011669;28;19921;-70
2022/01/29 10:57:30;;;;;;;;;;;;;;;9.10;66.55;100839.94;5011921;28;20372;-70
2022/01/29 10:59:55;;;;;;;;;;;;;;;9.41;65.72;100840.47;5012038;28;19918;-71
2022/01/29 11:02:21;;;;;;;;;;;;;;;9.26;64.84;100843.16;5011709;28;19940;-70
2022/01/29 11:04:48;;;;;;;;;;;;;;;9.64;64.43;100833.50;5012097;28;19917;-70
2022/01/29 11:07:17;;;;;;;;;;;;;;;9.68;65.09;100831.78;5011490;28;20097;-69
2022/01/29 11:09:43;;;;;;;;;;;;;;;9.43;64.87;100838.78;5011770;28;19917;-70
2022/01/29 11:12:09;;;;;;;;;;;;;;;9.78;64.80;100831.66;5026895;28;20433;-71
2022/01/29 11:14:35;;;;;;;;;;;;;;;10.00;63.45;100824.63;5011688;28;20410;-70
2022/01/29 11:17:02;;;;;;;;;;;;;;;10.32;61.91;100823.38;5011548;28;20015;-70
2022/01/29 11:19:28;;;;;;;;;;;;;;;9.95;61.19;100826.38;5011667;28;19948;-70
2022/01/29 11:21:54;;;;;;;;;;;;;;;9.68;61.96;100825.00;5011268;28;20465;-70
2022/01/29 11:24:21;;;;;;;;;;;;;;;9.77;62.47;100832.50;5011572;28;19914;-69
2022/01/29 11:26:47;;;;;;;;;;;;;;;9.76;61.15;100830.00;5011460;28;19913;-70
2022/01/29 11:29:19;;;;;;;;;;;;;;;9.19;62.44;100834.75;5011458;28;19921;-69
2022/01/29 11:31:44;;;;;;;;;;;;;;;9.74;61.93;100831.69;5009862;28;19951;-69
2022/01/29 11:34:09;;;;;;;;;;;;;;;9.99;60.83;100831.41;5011258;28;19956;-67
2022/01/29 11:36:47;;;;;;;;;;;;;;;10.66;59.52;100820.34;5009741;28;20372;-70
2022/01/29 11:39:21;;;;;;;;;;;;;;;10.66;59.27;100817.81;5010898;28;19913;-70
2022/01/29 11:42:05;;;;;;;;;;;;;;;10.29;59.39;100825.97;5011400;28;20371;-69
2022/01/29 11:44:31;;;;;;;;;;;;;;;10.58;59.10;100827.28;5011126;28;19913;-70
2022/01/29 11:46:56;;;;;;;;;;;;;;;9.70;60.42;100822.44;5010999;28;20000;-70
2022/01/29 11:49:22;;;;;;;;;;;;;;;10.01;59.83;100826.31;5010802;28;19923;-70
2022/01/29 11:51:48;;;;;;;;;;;;;;;10.54;58.72;100825.66;5011156;28;19919;-70
2022/01/29 11:54:15;;;;;;;;;;;;;;;10.77;58.04;100814.28;5011394;28;20020;-70
2022/01/29 11:56:41;;;;;;;;;;;;;;;10.01;58.66;100816.13;5011049;28;19953;-69
2022/01/29 11:59:19;;;;;;;;;;;;;;;10.24;59.29;100817.56;5011466;28;20001;-70
2022/01/29 12:01:48;;;;;;;;;;;;;;;10.27;58.59;100812.44;5011008;28;19961;-70
2022/01/29 12:04:16;;;;;;;;;;;;;;;10.46;56.90;100818.09;5011129;28;19917;-70
2022/01/29 12:07:00;;;;;;;;;;;;;;;10.35;58.33;100813.19;5011329;28;20007;-70
2022/01/29 12:09:27;;;;;;;;;;;;;;;10.32;57.09;100814.91;5010981;28;20454;-70
2022/01/29 12:12:11;;;;;;;;;;;;;;;10.37;56.92;100821.63;5010609;28;19915;-69
2022/01/29 12:14:37;;;;;;;;;;;;;;;10.42;56.11;100812.22;5011255;28;19913;-70
2022/01/29 12:17:05;;;;;;;;;;;;;;;10.83;56.77;100813.34;5026004;28;19920;-70
2022/01/29 12:19:37;;;;;;;;;;;;;;;10.32;56.17;100808.13;5010993;28;19913;-70
2022/01/29 12:22:23;;;;;;;;;;;;;;;10.28;55.27;100793.78;5008152;28;20398;-70
2022/01/29 12:24:49;;;;;;;;;;;;;;;10.63;55.69;100805.16;5005731;28;20556;-70
2022/01/29 12:27:14;;;;;;;;;;;;;;;10.78;55.16;100798.13;5009999;28;19917;-69
2022/01/29 12:29:39;;;;;;;;;;;;;;;11.07;54.13;100800.22;5010763;28;19926;-70
2022/01/29 12:32:05;;;;;;;;;;;;;;;10.87;53.97;100800.56;5010957;28;20303;-70
2022/01/29 12:34:30;;;;;;;;;;;;;;;11.35;54.77;100791.22;5009248;28;19913;-71
2022/01/29 12:37:15;;;;;;;;;;;;;;;10.66;54.32;100800.00;5009936;28;20375;-70
2022/01/29 12:39:42;;;;;;;;;;;;;;;11.35;55.14;100784.44;5010751;28;19992;-70
2022/01/29 12:42:25;;;;;;;;;;;;;;;11.34;52.67;100792.09;5008446;28;19916;-70
2022/01/29 12:44:54;;;;;;;;;;;;;;;11.49;53.16;100789.25;4989983;28;19914;-70
2022/01/29 12:47:24;;;;;;;;;;;;;;;11.20;53.97;100781.31;4990176;28;19910;-69
2022/01/29 12:49:49;;;;;;;;;;;;;;;11.21;53.02;100786.38;4993402;28;19945;-70